createdAt,value
2016-12-06T00:00:17.584Z,0
2016-12-06T00:01:29.124Z,0
2016-12-06T00:02:40.351Z,0
2016-12-06T00:03:52.044Z,0
2016-12-06T00:05:04.275Z,0
2016-12-06T00:06:16.037Z,0
2016-12-06T00:07:27.298Z,0
2016-12-06T00:08:39.188Z,0
2016-12-06T00:09:50.970Z,0
2016-12-06T00:11:02.463Z,0
2016-12-06T00:12:14.134Z,0
2016-12-06T00:13:25.468Z,0
2016-12-06T00:14:51.582Z,0
2016-12-06T00:16:03.478Z,0
2016-12-06T00:17:14.857Z,0
2016-12-06T00:18:26.686Z,0
2016-12-06T00:19:38.123Z,0
2016-12-06T00:20:49.630Z,0
2016-12-06T00:22:01.425Z,0
2016-12-06T00:23:12.820Z,0
2016-12-06T00:24:24.793Z,0
2016-12-06T00:25:36.139Z,0
2016-12-06T00:26:47.617Z,0
2016-12-06T00:27:59.224Z,0
2016-12-06T00:29:11.573Z,0
2016-12-06T00:30:23.120Z,0
2016-12-06T00:31:35.012Z,0
2016-12-06T00:32:46.595Z,0
2016-12-06T00:33:58.292Z,0
2016-12-06T00:35:09.842Z,0
2016-12-06T00:36:21.316Z,0
2016-12-06T00:37:33.148Z,0
2016-12-06T00:38:44.517Z,0
2016-12-06T00:39:58.524Z,0
2016-12-06T00:41:09.985Z,0
2016-12-06T00:42:21.772Z,0
2016-12-06T00:43:33.064Z,0
2016-12-06T00:44:44.805Z,0
2016-12-06T00:45:56.393Z,0
2016-12-06T00:47:08.217Z,0
2016-12-06T00:48:19.643Z,0
2016-12-06T00:49:31.998Z,0
2016-12-06T00:50:43.356Z,0
2016-12-06T00:51:55.283Z,0
2016-12-06T00:53:06.729Z,0
2016-12-06T00:54:18.203Z,0
2016-12-06T00:55:29.904Z,0
2016-12-06T00:56:41.471Z,0
2016-12-06T00:57:53.224Z,0
2016-12-06T00:59:05.156Z,0
2016-12-06T01:00:17.018Z,0
2016-12-06T01:01:28.781Z,0
2016-12-06T01:02:40.292Z,0
2016-12-06T01:03:52.192Z,0
2016-12-06T01:05:04.119Z,0
2016-12-06T01:06:15.634Z,0
2016-12-06T01:07:27.181Z,0
2016-12-06T01:08:38.624Z,0
2016-12-06T01:09:50.347Z,0
2016-12-06T01:11:02.162Z,0
2016-12-06T01:12:13.622Z,0
2016-12-06T01:13:25.107Z,0
2016-12-06T01:14:36.523Z,0
2016-12-06T01:15:48.239Z,0
2016-12-06T01:16:59.647Z,0
2016-12-06T01:18:11.687Z,0
2016-12-06T01:19:23.025Z,0
2016-12-06T01:20:34.967Z,0
2016-12-06T01:21:46.617Z,0
2016-12-06T01:22:58.285Z,0
2016-12-06T01:24:09.904Z,0
2016-12-06T01:25:21.949Z,0
2016-12-06T01:26:33.375Z,0
2016-12-06T01:27:45.009Z,0
2016-12-06T01:28:56.223Z,0
2016-12-06T01:30:07.943Z,0
2016-12-06T01:31:19.638Z,0
2016-12-06T01:32:31.026Z,0
2016-12-06T01:33:42.556Z,0
2016-12-06T01:34:53.847Z,0
2016-12-06T01:36:05.297Z,0
2016-12-06T01:37:17.080Z,0
2016-12-06T01:38:28.523Z,0
2016-12-06T01:39:40.468Z,0
2016-12-06T01:40:52.160Z,0
2016-12-06T01:42:03.607Z,0
2016-12-06T01:43:15.397Z,0
2016-12-06T01:44:26.766Z,0
2016-12-06T01:45:38.401Z,0
2016-12-06T01:46:49.844Z,0
2016-12-06T01:48:01.313Z,0
2016-12-06T01:49:13.222Z,0
2016-12-06T01:50:24.712Z,0
2016-12-06T01:51:36.429Z,0
2016-12-06T01:52:47.967Z,0
2016-12-06T01:54:01.570Z,0
2016-12-06T01:55:13.015Z,0
2016-12-06T01:56:24.904Z,0
2016-12-06T01:57:36.241Z,0
2016-12-06T01:58:47.771Z,0
2016-12-06T01:59:59.175Z,0
2016-12-06T02:01:10.716Z,0
2016-12-06T02:02:22.312Z,0
2016-12-06T02:03:34.061Z,0
2016-12-06T02:04:45.318Z,0
2016-12-06T02:05:56.761Z,0
2016-12-06T02:07:08.256Z,0
2016-12-06T02:08:19.854Z,0
2016-12-06T02:09:31.356Z,0
2016-12-06T02:10:42.791Z,0
2016-12-06T02:11:54.200Z,0
2016-12-06T02:13:05.598Z,0
2016-12-06T02:14:17.262Z,0
2016-12-06T02:15:29.175Z,0
2016-12-06T02:16:40.554Z,0
2016-12-06T02:17:51.997Z,0
2016-12-06T02:19:03.478Z,0
2016-12-06T02:20:14.865Z,0
2016-12-06T02:21:26.650Z,0
2016-12-06T02:22:38.837Z,0
2016-12-06T02:23:50.479Z,0
2016-12-06T02:25:01.737Z,0
2016-12-06T02:26:13.532Z,0
2016-12-06T02:27:25.082Z,0
2016-12-06T02:28:36.640Z,0
2016-12-06T02:29:48.838Z,0
2016-12-06T02:31:00.378Z,0
2016-12-06T02:32:11.925Z,0
2016-12-06T02:33:23.871Z,0
2016-12-06T02:34:35.614Z,0
2016-12-06T02:35:47.820Z,0
2016-12-06T02:36:59.370Z,0
2016-12-06T02:38:11.241Z,0
2016-12-06T02:39:24.202Z,0
2016-12-06T02:40:36.634Z,0
2016-12-06T02:41:48.860Z,0
2016-12-06T02:43:02.370Z,0
2016-12-06T02:44:15.842Z,0
2016-12-06T02:45:30.106Z,0
2016-12-06T02:46:42.589Z,0
2016-12-06T02:47:54.841Z,0
2016-12-06T02:49:07.727Z,0
2016-12-06T02:50:20.080Z,0
2016-12-06T02:51:47.279Z,0
2016-12-06T02:53:00.923Z,0
2016-12-06T02:54:13.226Z,0
2016-12-06T02:55:26.455Z,0
2016-12-06T02:56:40.130Z,0
2016-12-06T02:57:52.546Z,0
2016-12-06T02:59:04.613Z,0
2016-12-06T03:00:18.372Z,0
2016-12-06T03:01:32.667Z,0
2016-12-06T03:02:48.296Z,0
2016-12-06T03:04:01.976Z,0
2016-12-06T03:05:15.240Z,0
2016-12-06T03:06:31.072Z,0
2016-12-06T03:07:44.807Z,0
2016-12-06T03:08:59.279Z,0
2016-12-06T03:10:11.222Z,0
2016-12-06T03:11:23.578Z,0
2016-12-06T03:12:36.401Z,0
2016-12-06T03:13:48.631Z,0
2016-12-06T03:15:05.679Z,0
2016-12-06T03:16:18.382Z,0
2016-12-06T03:17:30.218Z,0
2016-12-06T03:18:41.830Z,0
2016-12-06T03:20:08.434Z,0
2016-12-06T03:21:20.143Z,0
2016-12-06T03:22:32.502Z,0
2016-12-06T03:23:45.474Z,0
2016-12-06T03:24:58.432Z,0
2016-12-06T03:26:10.720Z,0
2016-12-06T03:27:24.094Z,0
2016-12-06T03:28:37.460Z,0
2016-12-06T03:29:51.595Z,0
2016-12-06T03:31:03.386Z,0
2016-12-06T03:32:16.340Z,0
2016-12-06T03:33:35.765Z,0
2016-12-06T03:34:51.049Z,0
2016-12-06T03:36:08.212Z,0
2016-12-06T03:37:26.430Z,0
2016-12-06T03:38:42.485Z,0
2016-12-06T03:39:59.464Z,0
2016-12-06T03:41:14.451Z,0
2016-12-06T03:42:29.790Z,0
2016-12-06T03:43:44.363Z,0
2016-12-06T03:44:59.164Z,0
2016-12-06T03:46:14.990Z,0
2016-12-06T03:47:31.599Z,0
2016-12-06T03:48:48.599Z,0
2016-12-06T03:50:04.479Z,0
2016-12-06T03:51:21.450Z,0
2016-12-06T03:52:33.441Z,0
2016-12-06T03:53:50.381Z,0
2016-12-06T03:55:07.604Z,0
2016-12-06T03:56:24.562Z,0
2016-12-06T03:57:43.449Z,0
2016-12-06T03:58:59.905Z,0
2016-12-06T04:00:20.363Z,0
2016-12-06T04:01:38.594Z,0
2016-12-06T04:02:55.922Z,0
2016-12-06T04:04:11.731Z,0
2016-12-06T04:05:31.211Z,0
2016-12-06T04:06:47.166Z,0
2016-12-06T04:08:06.004Z,0
2016-12-06T04:09:22.103Z,0
2016-12-06T04:10:38.441Z,0
2016-12-06T04:11:53.856Z,0
2016-12-06T04:13:06.255Z,0
2016-12-06T04:14:18.389Z,0
2016-12-06T04:15:34.828Z,0
2016-12-06T04:16:51.815Z,0
2016-12-06T04:19:41.506Z,0
2016-12-06T04:21:00.544Z,0
2016-12-06T04:22:19.392Z,0
2016-12-06T04:23:37.660Z,0
2016-12-06T04:24:53.461Z,0
2016-12-06T04:26:05.192Z,0
2016-12-06T04:27:19.189Z,0
2016-12-06T04:28:31.278Z,0
2016-12-06T04:29:42.627Z,0
2016-12-06T04:30:54.343Z,0
2016-12-06T04:32:06.009Z,0
2016-12-06T04:33:19.978Z,0
2016-12-06T04:34:33.501Z,0
2016-12-06T04:35:48.422Z,0
2016-12-06T04:37:06.035Z,0
2016-12-06T04:38:19.190Z,0
2016-12-06T04:39:32.491Z,0
2016-12-06T04:40:45.219Z,0
2016-12-06T04:41:57.016Z,0
2016-12-06T04:43:08.563Z,0
2016-12-06T04:44:21.256Z,0
2016-12-06T04:45:32.650Z,0
2016-12-06T04:46:44.430Z,0
2016-12-06T04:47:56.201Z,0
2016-12-06T04:49:08.071Z,0
2016-12-06T04:50:20.497Z,0
2016-12-06T04:51:32.802Z,0
2016-12-06T04:52:45.147Z,0
2016-12-06T04:53:57.080Z,0
2016-12-06T04:55:14.394Z,0
2016-12-06T04:56:29.113Z,0
2016-12-06T04:57:41.440Z,0
2016-12-06T04:58:53.421Z,0
2016-12-06T05:00:08.096Z,0
2016-12-06T05:01:40.835Z,0
2016-12-06T05:03:01.076Z,0
2016-12-06T05:04:14.460Z,0
2016-12-06T05:05:26.561Z,0
2016-12-06T05:06:41.114Z,0
2016-12-06T05:07:55.837Z,0
2016-12-06T05:09:09.384Z,0
2016-12-06T05:10:24.585Z,0
2016-12-06T05:11:37.082Z,0
2016-12-06T05:12:48.753Z,0
2016-12-06T05:14:00.351Z,0
2016-12-06T05:15:11.752Z,0
2016-12-06T05:16:23.343Z,0
2016-12-06T05:17:37.003Z,0
2016-12-06T05:18:50.442Z,0
2016-12-06T05:20:04.771Z,0
2016-12-06T05:21:16.915Z,0
2016-12-06T05:22:31.587Z,0
2016-12-06T05:23:47.078Z,0
2016-12-06T05:25:01.002Z,0
2016-12-06T05:26:15.346Z,0
2016-12-06T05:27:29.765Z,0
2016-12-06T05:28:41.335Z,0
2016-12-06T05:29:52.579Z,0
2016-12-06T05:31:04.239Z,0
2016-12-06T05:32:15.745Z,0
2016-12-06T05:33:27.368Z,0
2016-12-06T05:34:39.281Z,0
2016-12-06T05:35:51.921Z,0
2016-12-06T05:37:03.850Z,0
2016-12-06T05:38:15.568Z,0
2016-12-06T05:39:27.820Z,0
2016-12-06T05:40:40.212Z,0
2016-12-06T05:41:52.018Z,0
2016-12-06T05:43:05.796Z,0
2016-12-06T05:44:17.184Z,0
2016-12-06T05:45:28.834Z,0
2016-12-06T05:46:40.626Z,0
2016-12-06T05:47:52.937Z,0
2016-12-06T05:49:19.220Z,0
2016-12-06T05:50:30.690Z,0
2016-12-06T05:51:42.120Z,0
2016-12-06T05:52:53.835Z,0
2016-12-06T05:54:05.591Z,0
2016-12-06T05:55:17.256Z,0
2016-12-06T05:56:28.621Z,0
2016-12-06T05:57:40.147Z,0
2016-12-06T05:58:52.277Z,0
2016-12-06T06:00:04.154Z,0
2016-12-06T06:01:15.820Z,0
2016-12-06T06:02:28.481Z,0
2016-12-06T06:03:41.304Z,0
2016-12-06T06:04:54.152Z,0
2016-12-06T06:06:06.223Z,0
2016-12-06T06:07:22.173Z,0
2016-12-06T06:08:35.122Z,0
2016-12-06T06:09:48.084Z,0
2016-12-06T06:11:00.839Z,0
2016-12-06T06:12:12.223Z,0
2016-12-06T06:13:24.036Z,0
2016-12-06T06:14:35.823Z,0
2016-12-06T06:15:48.416Z,0
2016-12-06T06:17:00.551Z,0
2016-12-06T06:18:12.159Z,0
2016-12-06T06:19:23.985Z,0
2016-12-06T06:20:36.924Z,0
2016-12-06T06:21:49.326Z,0
2016-12-06T06:23:01.633Z,0
2016-12-06T06:24:14.268Z,0
2016-12-06T06:25:29.017Z,0
2016-12-06T06:26:40.452Z,0
2016-12-06T06:27:56.137Z,0
2016-12-06T06:29:10.784Z,0
2016-12-06T06:30:24.475Z,0
2016-12-06T06:31:37.549Z,0
2016-12-06T06:32:52.034Z,0
2016-12-06T06:34:04.181Z,0
2016-12-06T06:35:16.158Z,0
2016-12-06T06:36:28.686Z,0
2016-12-06T06:37:41.910Z,0
2016-12-06T06:38:56.150Z,0
2016-12-06T06:40:12.252Z,0
2016-12-06T06:41:27.371Z,0
2016-12-06T06:42:44.548Z,0
2016-12-06T06:44:01.978Z,0
2016-12-06T06:45:15.855Z,0
2016-12-06T06:46:29.191Z,0
2016-12-06T06:47:55.633Z,0
2016-12-06T06:49:08.142Z,0
2016-12-06T06:50:20.084Z,0
2016-12-06T06:51:31.944Z,0
2016-12-06T06:52:43.558Z,0
2016-12-06T06:53:55.263Z,0
2016-12-06T06:55:06.761Z,0
2016-12-06T06:56:18.598Z,0
2016-12-06T06:57:30.076Z,0
2016-12-06T06:58:44.187Z,0
2016-12-06T06:59:55.695Z,0
2016-12-06T07:01:07.239Z,0
2016-12-06T07:02:18.875Z,0
2016-12-06T07:03:30.720Z,0
2016-12-06T07:04:42.365Z,0
2016-12-06T07:05:53.925Z,0
2016-12-06T07:07:05.202Z,0
2016-12-06T07:08:16.557Z,0
2016-12-06T07:09:27.942Z,0
2016-12-06T07:10:39.771Z,0
2016-12-06T07:11:51.189Z,0
2016-12-06T07:13:02.899Z,0
2016-12-06T07:14:14.789Z,0
2016-12-06T07:15:26.190Z,0
2016-12-06T07:16:38.142Z,0
2016-12-06T07:17:49.786Z,0
2016-12-06T07:19:02.011Z,0
2016-12-06T07:20:13.962Z,0
2016-12-06T07:21:25.559Z,0
2016-12-06T07:22:37.527Z,0
2016-12-06T07:23:49.143Z,0
2016-12-06T07:25:00.554Z,5
2016-12-06T07:26:12.677Z,5
2016-12-06T07:27:24.138Z,5
2016-12-06T07:28:35.856Z,5
2016-12-06T07:29:47.257Z,5
2016-12-06T07:30:58.625Z,5
2016-12-06T07:32:09.954Z,5
2016-12-06T07:33:21.912Z,5
2016-12-06T07:34:33.793Z,5
2016-12-06T07:35:45.156Z,5
2016-12-06T07:36:56.563Z,5
2016-12-06T07:38:08.077Z,5
2016-12-06T07:39:19.800Z,5
2016-12-06T07:40:31.511Z,5
2016-12-06T07:41:42.877Z,5
2016-12-06T07:42:54.691Z,10
2016-12-06T07:44:06.439Z,10
2016-12-06T07:45:18.040Z,10
2016-12-06T07:46:29.689Z,10
2016-12-06T07:47:41.145Z,10
2016-12-06T07:48:52.446Z,10
2016-12-06T07:50:03.885Z,10
2016-12-06T07:51:15.954Z,10
2016-12-06T07:52:27.863Z,10
2016-12-06T07:53:39.640Z,10
2016-12-06T07:54:50.902Z,10
2016-12-06T07:56:02.318Z,10
2016-12-06T07:57:14.012Z,10
2016-12-06T07:58:26.086Z,10
2016-12-06T07:59:37.699Z,15
2016-12-06T08:00:48.969Z,15
2016-12-06T08:02:00.424Z,15
2016-12-06T08:03:11.764Z,15
2016-12-06T08:04:23.387Z,15
2016-12-06T08:05:34.745Z,15
2016-12-06T08:06:46.585Z,15
2016-12-06T08:07:58.333Z,15
2016-12-06T08:09:10.226Z,15
2016-12-06T08:10:21.963Z,15
2016-12-06T08:11:33.412Z,15
2016-12-06T08:12:47.445Z,15
2016-12-06T08:13:58.951Z,15
2016-12-06T08:15:10.301Z,15
2016-12-06T08:16:21.935Z,15
2016-12-06T08:17:33.400Z,15
2016-12-06T08:18:45.137Z,15
2016-12-06T08:19:56.820Z,15
2016-12-06T08:21:08.894Z,15
2016-12-06T08:22:20.864Z,20
2016-12-06T08:23:32.664Z,15
2016-12-06T08:24:44.408Z,15
2016-12-06T08:25:56.011Z,15
2016-12-06T08:27:07.371Z,20
2016-12-06T08:28:19.777Z,20
2016-12-06T08:29:31.757Z,20
2016-12-06T08:30:43.214Z,20
2016-12-06T08:31:54.464Z,20
2016-12-06T08:33:05.957Z,20
2016-12-06T08:34:18.160Z,20
2016-12-06T08:35:29.553Z,20
2016-12-06T08:36:41.359Z,20
2016-12-06T08:37:52.692Z,20
2016-12-06T08:39:04.440Z,20
2016-12-06T08:40:16.306Z,20
2016-12-06T08:41:27.917Z,20
2016-12-06T08:42:39.880Z,20
2016-12-06T08:43:51.324Z,20
2016-12-06T08:45:02.810Z,20
2016-12-06T08:46:14.424Z,25
2016-12-06T08:47:26.019Z,25
2016-12-06T08:48:37.295Z,25
2016-12-06T08:49:49.246Z,25
2016-12-06T08:51:00.674Z,25
2016-12-06T08:52:12.349Z,25
2016-12-06T08:53:23.663Z,25
2016-12-06T08:54:34.887Z,25
2016-12-06T08:55:46.752Z,25
2016-12-06T08:56:58.384Z,25
2016-12-06T08:58:10.068Z,25
2016-12-06T08:59:21.536Z,25
2016-12-06T09:00:33.164Z,30
2016-12-06T09:01:44.826Z,30
2016-12-06T09:02:56.539Z,30
2016-12-06T09:04:08.411Z,30
2016-12-06T09:05:19.901Z,30
2016-12-06T09:06:31.333Z,30
2016-12-06T09:07:43.048Z,30
2016-12-06T09:08:54.700Z,30
2016-12-06T09:10:06.564Z,30
2016-12-06T09:11:18.086Z,30
2016-12-06T09:12:29.485Z,30
2016-12-06T09:13:41.016Z,30
2016-12-06T09:14:52.548Z,30
2016-12-06T09:16:04.415Z,30
2016-12-06T09:17:15.939Z,30
2016-12-06T09:18:27.465Z,30
2016-12-06T09:19:38.785Z,30
2016-12-06T09:20:50.124Z,30
2016-12-06T09:22:01.651Z,30
2016-12-06T09:23:12.943Z,30
2016-12-06T09:24:24.696Z,35
2016-12-06T09:25:36.141Z,35
2016-12-06T09:26:49.775Z,35
2016-12-06T09:28:01.551Z,35
2016-12-06T09:29:13.222Z,35
2016-12-06T09:30:24.717Z,35
2016-12-06T09:31:36.190Z,35
2016-12-06T09:32:47.421Z,35
2016-12-06T09:33:59.736Z,35
2016-12-06T09:35:11.084Z,35
2016-12-06T09:36:22.642Z,35
2016-12-06T09:37:33.849Z,40
2016-12-06T09:38:45.493Z,40
2016-12-06T09:39:57.489Z,40
2016-12-06T09:41:08.699Z,40
2016-12-06T09:42:20.482Z,40
2016-12-06T09:43:31.917Z,45
2016-12-06T09:44:43.293Z,45
2016-12-06T09:45:55.170Z,45
2016-12-06T09:47:07.031Z,45
2016-12-06T09:48:18.550Z,45
2016-12-06T09:49:30.751Z,45
2016-12-06T09:50:41.997Z,45
2016-12-06T09:51:53.633Z,45
2016-12-06T09:53:04.911Z,45
2016-12-06T09:54:16.372Z,45
2016-12-06T09:55:27.852Z,40
2016-12-06T09:56:53.898Z,40
2016-12-06T09:59:31.911Z,45
2016-12-06T10:00:43.823Z,45
2016-12-06T10:01:55.524Z,45
2016-12-06T10:03:07.204Z,45
2016-12-06T10:04:18.639Z,45
2016-12-06T10:05:30.471Z,45
2016-12-06T10:06:41.872Z,45
2016-12-06T10:07:53.217Z,45
2016-12-06T10:09:04.852Z,45
2016-12-06T10:10:16.198Z,40
2016-12-06T10:11:27.651Z,40
2016-12-06T10:12:38.912Z,40
2016-12-06T10:14:05.422Z,40
2016-12-06T10:15:17.316Z,40
2016-12-06T10:16:28.874Z,40
2016-12-06T10:17:40.490Z,40
2016-12-06T10:18:51.741Z,40
2016-12-06T10:20:03.718Z,40
2016-12-06T10:21:15.536Z,40
2016-12-06T10:22:27.096Z,40
2016-12-06T10:23:39.298Z,40
2016-12-06T10:24:50.815Z,40
2016-12-06T10:26:02.402Z,40
2016-12-06T10:27:13.714Z,40
2016-12-06T10:28:25.912Z,40
2016-12-06T10:29:37.661Z,40
2016-12-06T10:31:03.826Z,40
2016-12-06T10:32:15.083Z,40
2016-12-06T10:33:26.288Z,40
2016-12-06T10:34:37.703Z,40
2016-12-06T10:35:49.607Z,40
2016-12-06T10:37:01.176Z,45
2016-12-06T10:38:12.670Z,45
2016-12-06T10:39:24.397Z,45
2016-12-06T10:40:35.721Z,45
2016-12-06T10:41:49.443Z,45
2016-12-06T10:43:01.135Z,45
2016-12-06T10:44:13.041Z,45
2016-12-06T10:45:39.612Z,40
2016-12-06T10:46:51.527Z,40
2016-12-06T10:48:03.266Z,40
2016-12-06T10:49:15.030Z,40
2016-12-06T10:50:26.768Z,40
2016-12-06T10:51:38.047Z,40
2016-12-06T10:52:49.482Z,45
2016-12-06T10:54:01.233Z,45
2016-12-06T10:55:12.939Z,45
2016-12-06T10:56:24.437Z,45
2016-12-06T10:57:35.926Z,40
2016-12-06T10:58:47.490Z,40
2016-12-06T10:59:59.312Z,40
2016-12-06T11:01:10.862Z,40
2016-12-06T11:02:22.620Z,45
2016-12-06T11:03:34.345Z,45
2016-12-06T11:04:45.653Z,45
2016-12-06T11:05:57.210Z,45
2016-12-06T11:07:08.584Z,50
2016-12-06T11:08:20.241Z,50
2016-12-06T11:09:31.850Z,50
2016-12-06T11:10:43.521Z,50
2016-12-06T11:11:55.424Z,50
2016-12-06T11:13:06.962Z,50
2016-12-06T11:14:18.371Z,50
2016-12-06T11:15:30.260Z,50
2016-12-06T11:16:41.965Z,50
2016-12-06T11:17:53.818Z,50
2016-12-06T11:19:05.691Z,45
2016-12-06T11:20:17.728Z,45
2016-12-06T11:21:29.237Z,45
2016-12-06T11:22:41.053Z,45
2016-12-06T11:23:52.798Z,45
2016-12-06T11:25:04.155Z,40
2016-12-06T11:26:16.313Z,40
2016-12-06T11:27:27.965Z,40
2016-12-06T11:28:39.296Z,40
2016-12-06T11:29:51.029Z,40
2016-12-06T11:31:02.457Z,40
2016-12-06T11:32:14.109Z,40
2016-12-06T11:33:25.922Z,40
2016-12-06T11:34:52.429Z,40
2016-12-06T11:36:03.961Z,40
2016-12-06T11:37:15.488Z,40
2016-12-06T11:38:27.112Z,40
2016-12-06T11:39:38.946Z,40
2016-12-06T11:40:51.677Z,40
2016-12-06T11:42:03.825Z,40
2016-12-06T11:43:15.645Z,40
2016-12-06T11:44:27.223Z,40
2016-12-06T11:45:38.890Z,40
2016-12-06T11:46:50.346Z,40
2016-12-06T11:48:02.467Z,40
2016-12-06T11:49:14.229Z,40
2016-12-06T11:50:26.459Z,40
2016-12-06T11:51:38.416Z,40
2016-12-06T11:52:49.955Z,40
2016-12-06T11:54:01.647Z,40
2016-12-06T11:55:12.888Z,40
2016-12-06T11:56:26.479Z,40
2016-12-06T11:57:38.477Z,40
2016-12-06T11:58:51.061Z,40
2016-12-06T12:00:02.853Z,40
2016-12-06T12:01:14.302Z,40
2016-12-06T12:02:25.577Z,40
2016-12-06T12:03:37.140Z,40
2016-12-06T12:04:48.440Z,40
2016-12-06T12:06:00.187Z,40
2016-12-06T12:07:12.785Z,40
2016-12-06T12:08:24.577Z,40
2016-12-06T12:09:36.026Z,40
2016-12-06T12:10:47.964Z,40
2016-12-06T12:12:00.363Z,40
2016-12-06T12:13:11.695Z,40
2016-12-06T12:14:23.401Z,40
2016-12-06T12:15:35.581Z,40
2016-12-06T12:16:46.882Z,35
2016-12-06T12:17:59.794Z,35
2016-12-06T12:19:11.630Z,35
2016-12-06T12:20:23.227Z,35
2016-12-06T12:21:34.872Z,35
2016-12-06T12:22:46.189Z,35
2016-12-06T12:23:57.972Z,35
2016-12-06T12:25:09.433Z,35
2016-12-06T12:26:21.382Z,35
2016-12-06T12:27:33.188Z,35
2016-12-06T12:28:44.797Z,35
2016-12-06T12:29:56.497Z,35
2016-12-06T12:31:08.135Z,35
2016-12-06T12:32:19.497Z,35
2016-12-06T12:33:31.018Z,35
2016-12-06T12:34:42.861Z,35
2016-12-06T12:35:54.662Z,35
2016-12-06T12:37:06.199Z,35
2016-12-06T12:38:17.732Z,35
2016-12-06T12:39:29.500Z,35
2016-12-06T12:40:41.122Z,35
2016-12-06T12:41:53.351Z,35
2016-12-06T12:43:04.926Z,35
2016-12-06T12:44:16.494Z,35
2016-12-06T12:45:27.964Z,35
2016-12-06T12:46:39.759Z,35
2016-12-06T12:47:51.420Z,30
2016-12-06T12:49:03.245Z,30
2016-12-06T12:50:15.032Z,30
2016-12-06T12:51:26.402Z,30
2016-12-06T12:52:37.859Z,30
2016-12-06T12:53:49.639Z,30
2016-12-06T12:55:01.911Z,30
2016-12-06T12:56:13.251Z,30
2016-12-06T12:57:24.718Z,30
2016-12-06T12:58:36.421Z,30
2016-12-06T12:59:48.071Z,30
2016-12-06T13:00:59.520Z,30
2016-12-06T13:02:10.862Z,30
2016-12-06T13:03:22.086Z,30
2016-12-06T13:04:33.528Z,30
2016-12-06T13:05:45.304Z,30
2016-12-06T13:06:57.180Z,30
2016-12-06T13:08:08.636Z,30
2016-12-06T13:09:20.115Z,30
2016-12-06T13:10:33.952Z,30
2016-12-06T13:11:45.321Z,30
2016-12-06T13:12:56.962Z,30
2016-12-06T13:14:08.617Z,30
2016-12-06T13:15:20.117Z,30
2016-12-06T13:16:31.631Z,25
2016-12-06T13:17:58.254Z,25
2016-12-06T13:19:10.275Z,25
2016-12-06T13:20:21.893Z,25
2016-12-06T13:21:33.835Z,25
2016-12-06T13:22:45.129Z,25
2016-12-06T13:23:57.042Z,25
2016-12-06T13:25:08.682Z,25
2016-12-06T13:26:20.538Z,25
2016-12-06T13:27:32.258Z,25
2016-12-06T13:28:58.926Z,25
2016-12-06T13:30:10.855Z,25
2016-12-06T13:31:22.115Z,25
2016-12-06T13:32:33.867Z,25
2016-12-06T13:33:45.792Z,25
2016-12-06T13:34:57.810Z,20
2016-12-06T13:36:09.797Z,20
2016-12-06T13:37:22.323Z,20
2016-12-06T13:38:33.688Z,20
2016-12-06T13:39:45.190Z,20
2016-12-06T13:40:56.497Z,20
2016-12-06T13:42:08.053Z,20
2016-12-06T13:43:19.769Z,20
2016-12-06T13:44:31.249Z,20
2016-12-06T13:45:42.659Z,20
2016-12-06T13:46:54.362Z,20
2016-12-06T13:48:06.332Z,20
2016-12-06T13:49:18.045Z,20
2016-12-06T13:50:29.470Z,20
2016-12-06T13:51:41.332Z,20
2016-12-06T13:52:52.762Z,20
2016-12-06T13:54:04.559Z,20
2016-12-06T13:55:15.834Z,20
2016-12-06T13:56:27.713Z,15
2016-12-06T13:57:39.546Z,15
2016-12-06T13:58:51.308Z,15
2016-12-06T14:00:03.031Z,15
2016-12-06T14:01:14.622Z,15
2016-12-06T14:02:26.007Z,15
2016-12-06T14:03:37.783Z,15
2016-12-06T14:04:49.952Z,15
2016-12-06T14:06:02.455Z,15
2016-12-06T14:07:14.022Z,15
2016-12-06T14:08:25.512Z,15
2016-12-06T14:09:37.121Z,15
2016-12-06T14:10:48.811Z,15
2016-12-06T14:12:01.000Z,15
2016-12-06T14:13:12.442Z,15
2016-12-06T14:14:23.914Z,10
2016-12-06T14:15:35.546Z,10
2016-12-06T14:16:47.621Z,10
2016-12-06T14:17:59.826Z,10
2016-12-06T14:19:11.643Z,10
2016-12-06T14:20:22.991Z,10
2016-12-06T14:21:34.783Z,10
2016-12-06T14:22:46.531Z,10
2016-12-06T14:23:58.221Z,10
2016-12-06T14:25:11.783Z,10
2016-12-06T14:26:23.229Z,10
2016-12-06T14:27:34.492Z,10
2016-12-06T14:28:45.881Z,10
2016-12-06T14:29:58.398Z,10
2016-12-06T14:31:10.474Z,10
2016-12-06T14:32:21.973Z,5
2016-12-06T14:33:33.386Z,5
2016-12-06T14:34:44.726Z,5
2016-12-06T14:35:56.405Z,5
2016-12-06T14:37:08.443Z,5
2016-12-06T14:38:20.243Z,5
2016-12-06T14:39:32.318Z,5
2016-12-06T14:40:43.795Z,5
2016-12-06T14:41:55.475Z,5
2016-12-06T14:43:06.791Z,5
2016-12-06T14:44:18.047Z,5
2016-12-06T14:45:29.437Z,5
2016-12-06T14:46:40.822Z,5
2016-12-06T14:47:52.756Z,5
2016-12-06T14:49:04.584Z,5
2016-12-06T14:50:16.015Z,5
2016-12-06T14:51:27.883Z,5
2016-12-06T14:52:39.674Z,5
2016-12-06T14:53:51.699Z,5
2016-12-06T14:55:03.136Z,5
2016-12-06T14:56:14.899Z,5
2016-12-06T14:57:26.350Z,5
2016-12-06T14:58:37.731Z,5
2016-12-06T14:59:49.713Z,0
2016-12-06T15:01:01.467Z,0
2016-12-06T15:02:13.388Z,0
2016-12-06T15:03:25.329Z,0
2016-12-06T15:04:38.425Z,0
2016-12-06T15:05:50.122Z,0
2016-12-06T15:07:03.305Z,0
2016-12-06T15:08:14.650Z,0
2016-12-06T15:09:26.680Z,0
2016-12-06T15:10:38.293Z,0
2016-12-06T15:11:50.037Z,0
2016-12-06T15:13:01.459Z,0
2016-12-06T15:14:12.766Z,0
2016-12-06T15:15:24.026Z,0
2016-12-06T15:16:35.567Z,0
2016-12-06T15:17:47.175Z,0
2016-12-06T15:18:58.572Z,0
2016-12-06T15:20:10.556Z,0
2016-12-06T15:21:21.891Z,0
2016-12-06T15:22:33.306Z,0
2016-12-06T15:23:45.038Z,0
2016-12-06T15:24:56.484Z,0
2016-12-06T15:26:07.866Z,0
2016-12-06T15:27:19.795Z,0
2016-12-06T15:28:31.095Z,0
2016-12-06T15:29:42.703Z,0
2016-12-06T15:30:54.587Z,0
2016-12-06T15:32:07.426Z,0
2016-12-06T15:33:18.753Z,0
2016-12-06T15:34:30.155Z,0
2016-12-06T15:35:41.804Z,0
2016-12-06T15:36:53.687Z,0
2016-12-06T15:38:05.080Z,0
2016-12-06T15:39:18.710Z,0
2016-12-06T15:40:30.386Z,0
2016-12-06T15:41:42.005Z,0
2016-12-06T15:42:55.304Z,0
2016-12-06T15:44:08.276Z,0
2016-12-06T15:45:19.522Z,0
2016-12-06T15:46:30.821Z,0
2016-12-06T15:47:42.501Z,0
2016-12-06T15:48:53.976Z,0
2016-12-06T15:50:05.804Z,0
2016-12-06T15:51:17.149Z,0
2016-12-06T15:52:28.559Z,0
2016-12-06T15:53:42.572Z,0
2016-12-06T15:54:54.010Z,0
2016-12-06T15:56:05.483Z,0
2016-12-06T15:57:17.289Z,0
2016-12-06T15:58:28.799Z,0
2016-12-06T15:59:40.481Z,0
2016-12-06T16:00:52.085Z,0
2016-12-06T16:02:03.625Z,0
2016-12-06T16:03:15.462Z,0
2016-12-06T16:04:27.181Z,0
2016-12-06T16:05:40.942Z,0
2016-12-06T16:06:52.275Z,0
2016-12-06T16:08:03.591Z,0
2016-12-06T16:09:15.176Z,0
2016-12-06T16:10:28.116Z,0
2016-12-06T16:11:39.677Z,0
2016-12-06T16:12:52.396Z,0
2016-12-06T16:14:18.980Z,0
2016-12-06T16:15:30.287Z,0
2016-12-06T16:18:08.430Z,0
2016-12-06T16:19:20.956Z,0
2016-12-06T16:20:33.231Z,0
2016-12-06T16:21:44.714Z,0
2016-12-06T16:22:56.316Z,0
2016-12-06T16:24:09.305Z,0
2016-12-06T16:25:20.844Z,0
2016-12-06T16:26:32.932Z,0
2016-12-06T16:27:44.711Z,0
2016-12-06T16:28:57.034Z,0
2016-12-06T16:30:09.053Z,0
2016-12-06T16:31:20.581Z,0
2016-12-06T16:32:32.316Z,0
2016-12-06T16:33:43.808Z,0
2016-12-06T16:34:55.667Z,0
2016-12-06T16:36:07.756Z,0
2016-12-06T16:37:19.410Z,0
2016-12-06T16:38:32.769Z,0
2016-12-06T16:39:59.581Z,0
2016-12-06T16:41:11.797Z,0
2016-12-06T16:42:23.940Z,0
2016-12-06T16:43:36.273Z,0
2016-12-06T16:44:48.034Z,0
2016-12-06T16:45:59.867Z,0
2016-12-06T16:47:11.231Z,0
2016-12-06T16:48:22.887Z,0
2016-12-06T16:49:34.441Z,0
2016-12-06T16:50:45.963Z,0
2016-12-06T16:51:57.231Z,0
2016-12-06T16:53:09.165Z,0
2016-12-06T16:54:23.042Z,0
2016-12-06T16:55:34.311Z,0
2016-12-06T16:56:45.744Z,0
2016-12-06T16:57:57.642Z,0
2016-12-06T16:59:09.588Z,0
2016-12-06T17:00:21.159Z,0
2016-12-06T17:01:32.600Z,0
2016-12-06T17:02:43.854Z,0
2016-12-06T17:03:55.588Z,0
2016-12-06T17:05:06.875Z,0
2016-12-06T17:06:18.712Z,0
2016-12-06T17:07:30.055Z,0
2016-12-06T17:08:41.359Z,0
2016-12-06T17:09:52.638Z,0
2016-12-06T17:11:04.161Z,0
2016-12-06T17:12:15.847Z,0
2016-12-06T17:13:27.886Z,0
2016-12-06T17:14:39.190Z,0
2016-12-06T17:15:50.976Z,0
2016-12-06T17:17:02.349Z,0
2016-12-06T17:18:14.241Z,0
2016-12-06T17:19:25.812Z,0
2016-12-06T17:20:37.338Z,0
2016-12-06T17:21:48.577Z,0
2016-12-06T17:22:59.810Z,0
2016-12-06T17:24:11.394Z,0
2016-12-06T17:25:22.702Z,0
2016-12-06T17:26:34.625Z,0
2016-12-06T17:27:46.194Z,0
2016-12-06T17:28:58.268Z,0
2016-12-06T17:30:10.306Z,0
2016-12-06T17:31:21.631Z,0
2016-12-06T17:32:33.325Z,0
2016-12-06T17:33:45.210Z,0
2016-12-06T17:34:56.769Z,0
2016-12-06T17:36:08.693Z,0
2016-12-06T17:37:20.320Z,0
2016-12-06T17:38:31.752Z,0
2016-12-06T17:39:43.390Z,0